Time;durP1;ratioP1;P1;durP2;ratioP2;P2;SDS_P1;SDS_P2;PMS_P1;PMS_P2;Temp;Humidity;BMP_temperature;BMP_pressure;BME280_temperature;BME280_humidity;BME280_pressure;Samples;Min_cycle;Max_cycle;Signal;HPM_P1;HPM_P2
2022/03/16 00:01:49;;;;;;;;;;;-0.20;99.90;;;;;;5053040;28;20031;-72
2022/03/16 00:04:14;;;;;;;;;;;-0.30;99.90;;;;;;5053227;28;20020;-72
2022/03/16 00:06:40;;;;;;;;;;;-0.30;99.90;;;;;;5053206;28;19958;-73
2022/03/16 00:09:05;;;;;;;;;;;-0.30;99.90;;;;;;5054759;28;19970;-73
2022/03/16 00:11:31;;;;;;;;;;;-0.30;99.90;;;;;;5052996;28;19909;-73
2022/03/16 00:13:59;;;;;;;;;;;-0.30;99.90;;;;;;5052983;28;19917;-73
2022/03/16 00:16:25;;;;;;;;;;;-0.30;99.90;;;;;;5054289;28;19919;-74
2022/03/16 00:18:50;;;;;;;;;;;0.80;99.90;;;;;;5054555;28;20353;-73
2022/03/16 00:21:16;;;;;;;;;;;-0.40;99.90;;;;;;5052867;28;20021;-74
2022/03/16 00:23:41;;;;;;;;;;;-0.40;99.90;;;;;;5052842;28;20304;-73
2022/03/16 00:26:07;;;;;;;;;;;-0.40;99.90;;;;;;5054742;28;20288;-73
2022/03/16 00:28:33;;;;;;;;;;;-0.50;99.90;;;;;;5054155;28;19917;-72
2022/03/16 00:30:58;;;;;;;;;;;-0.50;99.90;;;;;;5052897;28;19952;-72
2022/03/16 00:33:24;;;;;;;;;;;-0.50;99.90;;;;;;5054188;28;19916;-72
2022/03/16 00:35:49;;;;;;;;;;;-0.50;99.90;;;;;;5052835;28;19915;-73
2022/03/16 00:38:16;;;;;;;;;;;-0.50;99.90;;;;;;5054078;28;19960;-74
2022/03/16 00:40:42;;;;;;;;;;;-0.50;99.90;;;;;;5053919;28;20246;-73
2022/03/16 00:43:08;;;;;;;;;;;-0.60;99.90;;;;;;5054057;28;19923;-73
2022/03/16 00:45:33;;;;;;;;;;;-0.40;99.90;;;;;;5053718;28;19909;-72
2022/03/16 00:47:59;;;;;;;;;;;-0.60;99.90;;;;;;5053748;28;19917;-73
2022/03/16 00:50:24;;;;;;;;;;;-0.60;99.90;;;;;;5053833;28;19916;-74
2022/03/16 00:52:50;;;;;;;;;;;-0.60;99.90;;;;;;5051919;28;19943;-72
2022/03/16 00:55:15;;;;;;;;;;;-0.70;99.90;;;;;;5053815;28;20058;-72
2022/03/16 00:57:41;;;;;;;;;;;-0.70;99.90;;;;;;5053405;28;19952;-73
2022/03/16 01:00:07;;;;;;;;;;;-0.70;99.90;;;;;;5053645;28;19915;-73
2022/03/16 01:02:32;;;;;;;;;;;-0.70;99.90;;;;;;5052048;28;19921;-73
2022/03/16 01:04:58;;;;;;;;;;;-0.70;99.90;;;;;;5053550;28;19917;-73
2022/03/16 01:07:24;;;;;;;;;;;-0.70;99.90;;;;;;5052095;28;19910;-72
2022/03/16 01:09:49;;;;;;;;;;;-0.80;99.90;;;;;;5053348;28;20237;-71
2022/03/16 01:12:15;;;;;;;;;;;-0.80;99.90;;;;;;5053277;28;20339;-72
2022/03/16 01:14:41;;;;;;;;;;;-0.90;99.90;;;;;;5052117;28;20281;-74
2022/03/16 01:17:06;;;;;;;;;;;-0.90;99.90;;;;;;5051852;28;19917;-73
2022/03/16 01:19:34;;;;;;;;;;;-0.80;99.90;;;;;;5051767;28;20190;-72
2022/03/16 01:22:04;;;;;;;;;;;-0.80;99.90;;;;;;5051709;28;20542;-72
2022/03/16 01:24:29;;;;;;;;;;;-0.80;99.90;;;;;;5053323;28;19924;-76
2022/03/16 01:26:55;;;;;;;;;;;-0.90;99.90;;;;;;5053226;28;20265;-72
2022/03/16 01:29:20;;;;;;;;;;;-0.90;99.90;;;;;;5051613;28;19917;-72
2022/03/16 01:31:46;;;;;;;;;;;-1.10;99.90;;;;;;5053005;28;19963;-72
2022/03/16 01:34:11;;;;;;;;;;;-1.00;99.90;;;;;;5053259;28;19912;-74
2022/03/16 01:36:38;;;;;;;;;;;-0.90;99.90;;;;;;5051483;28;19917;-71
2022/03/16 01:39:04;;;;;;;;;;;-1.00;99.90;;;;;;5053302;28;19913;-72
2022/03/16 01:41:29;;;;;;;;;;;-1.00;99.90;;;;;;5052795;28;20054;-72
2022/03/16 01:43:56;;;;;;;;;;;-1.00;99.90;;;;;;5051415;28;19952;-72
2022/03/16 01:46:22;;;;;;;;;;;-1.00;99.90;;;;;;5051197;28;19920;-73
2022/03/16 01:48:47;;;;;;;;;;;-1.10;99.90;;;;;;5052915;28;20352;-73
2022/03/16 01:51:13;;;;;;;;;;;-1.10;99.90;;;;;;5051150;28;19967;-73
2022/03/16 01:53:41;;;;;;;;;;;-1.10;99.90;;;;;;5052775;28;20059;-72
2022/03/16 01:56:07;;;;;;;;;;;-1.00;99.90;;;;;;5051267;28;20376;-74
2022/03/16 01:58:33;;;;;;;;;;;-1.00;99.90;;;;;;5052622;28;20000;-71
2022/03/16 02:00:59;;;;;;;;;;;-1.10;99.90;;;;;;5052398;28;20004;-71
2022/03/16 02:03:24;;;;;;;;;;;-1.10;99.90;;;;;;5051267;28;19916;-73
2022/03/16 02:05:50;;;;;;;;;;;-1.10;99.90;;;;;;5052284;28;19916;-73
2022/03/16 02:08:16;;;;;;;;;;;-1.10;99.90;;;;;;5052377;28;19916;-73
2022/03/16 02:10:42;;;;;;;;;;;-1.20;99.90;;;;;;5052122;28;19912;-72
2022/03/16 02:13:10;;;;;;;;;;;-1.20;99.90;;;;;;5034056;28;23058;-73
2022/03/16 02:15:36;;;;;;;;;;;-1.10;99.90;;;;;;5050958;28;19915;-73
2022/03/16 02:18:01;;;;;;;;;;;-1.20;99.90;;;;;;5052022;28;20019;-73
2022/03/16 02:20:27;;;;;;;;;;;-1.20;99.90;;;;;;5052011;28;20277;-73
2022/03/16 02:22:57;;;;;;;;;;;-1.20;99.90;;;;;;5051556;28;20405;-72
2022/03/16 02:25:23;;;;;;;;;;;-1.20;99.90;;;;;;5050585;28;20258;-72
2022/03/16 02:27:49;;;;;;;;;;;-1.20;99.90;;;;;;5050260;28;19917;-72
2022/03/16 02:30:14;;;;;;;;;;;-1.90;99.90;;;;;;5050463;28;19996;-72
2022/03/16 02:32:40;;;;;;;;;;;-1.30;99.90;;;;;;5051800;28;19916;-72
2022/03/16 02:35:06;;;;;;;;;;;-1.30;99.90;;;;;;5051978;28;19952;-73
2022/03/16 02:37:34;;;;;;;;;;;-2.00;99.90;;;;;;5050325;28;20011;-71
2022/03/16 02:40:01;;;;;;;;;;;-1.40;99.90;;;;;;5051960;28;19962;-72
2022/03/16 02:42:27;;;;;;;;;;;-1.40;99.90;;;;;;5050294;28;19909;-73
2022/03/16 02:44:53;;;;;;;;;;;-1.40;99.90;;;;;;5050689;28;19912;-73
2022/03/16 02:47:18;;;;;;;;;;;-1.40;99.90;;;;;;5050033;28;19909;-72
2022/03/16 02:49:44;;;;;;;;;;;-1.40;99.90;;;;;;5052035;28;20361;-73
2022/03/16 02:52:09;;;;;;;;;;;-1.40;99.90;;;;;;5051592;28;20257;-72
2022/03/16 02:54:35;;;;;;;;;;;-1.40;99.90;;;;;;5050275;28;19917;-71
2022/03/16 02:57:01;;;;;;;;;;;-1.50;99.90;;;;;;5049927;28;19921;-72
2022/03/16 02:59:26;;;;;;;;;;;-1.60;99.90;;;;;;5050407;28;19917;-73
2022/03/16 03:01:52;;;;;;;;;;;-1.50;99.90;;;;;;5051240;28;19927;-73
2022/03/16 03:04:18;;;;;;;;;;;-1.40;99.90;;;;;;5050136;28;19917;-72
2022/03/16 03:06:43;;;;;;;;;;;-1.50;99.90;;;;;;5049984;28;19917;-74
2022/03/16 03:09:10;;;;;;;;;;;-1.50;99.90;;;;;;5051814;28;19919;-73
2022/03/16 03:11:35;;;;;;;;;;;-1.40;99.90;;;;;;5050150;28;20019;-73
2022/03/16 03:14:01;;;;;;;;;;;-1.40;99.90;;;;;;5051579;28;20326;-72
2022/03/16 03:16:27;;;;;;;;;;;-0.80;99.90;;;;;;5051106;28;19917;-72
2022/03/16 03:18:52;;;;;;;;;;;-1.50;99.90;;;;;;5049972;28;19978;-72
2022/03/16 03:21:18;;;;;;;;;;;-0.70;99.90;;;;;;5051145;28;20054;-71
2022/03/16 03:23:43;;;;;;;;;;;-1.40;99.90;;;;;;5049775;28;19912;-72
2022/03/16 03:26:09;;;;;;;;;;;-1.60;99.90;;;;;;5049698;28;19943;-72
2022/03/16 03:28:34;;;;;;;;;;;-1.50;99.90;;;;;;5049872;28;20035;-73
2022/03/16 03:31:00;;;;;;;;;;;-1.60;99.90;;;;;;5051078;28;19927;-71
2022/03/16 03:33:25;;;;;;;;;;;-1.60;99.90;;;;;;5049743;28;20420;-74
2022/03/16 03:35:51;;;;;;;;;;;-1.70;99.90;;;;;;5052310;28;19959;-74
2022/03/16 03:38:17;;;;;;;;;;;-1.60;99.90;;;;;;5053476;28;19963;-73
2022/03/16 03:40:43;;;;;;;;;;;-1.70;99.90;;;;;;5055044;28;20376;-72
2022/03/16 03:43:11;;;;;;;;;;;-1.70;99.90;;;;;;5055224;28;19948;-73
2022/03/16 03:45:37;;;;;;;;;;;-1.80;99.90;;;;;;5053412;28;19923;-73
2022/03/16 03:48:02;;;;;;;;;;;-1.80;99.90;;;;;;5053080;28;20314;-73
2022/03/16 03:50:28;;;;;;;;;;;-1.70;99.90;;;;;;5053633;28;20011;-70
2022/03/16 03:52:54;;;;;;;;;;;-1.70;99.90;;;;;;5054420;28;20364;-72
2022/03/16 03:55:19;;;;;;;;;;;-1.70;99.90;;;;;;5053486;28;19913;-72
2022/03/16 03:57:45;;;;;;;;;;;-1.70;99.90;;;;;;5054628;28;19916;-73
2022/03/16 04:00:11;;;;;;;;;;;-1.80;99.90;;;;;;5054849;28;19923;-73
2022/03/16 04:02:36;;;;;;;;;;;-1.80;99.90;;;;;;5054428;28;19925;-72
2022/03/16 04:05:05;;;;;;;;;;;-1.90;99.90;;;;;;5054990;28;20004;-72
2022/03/16 04:07:31;;;;;;;;;;;-1.90;99.90;;;;;;5054394;28;19948;-72
2022/03/16 04:09:56;;;;;;;;;;;-1.90;99.90;;;;;;5054558;28;19971;-73
2022/03/16 04:12:22;;;;;;;;;;;-1.70;99.90;;;;;;5053045;28;19909;-73
2022/03/16 04:14:47;;;;;;;;;;;-1.80;99.90;;;;;;5054416;28;19924;-74
2022/03/16 04:17:13;;;;;;;;;;;-1.80;99.90;;;;;;5053046;28;19913;-72
2022/03/16 04:19:38;;;;;;;;;;;-1.70;99.90;;;;;;5054798;28;20012;-73
2022/03/16 04:22:04;;;;;;;;;;;-1.90;99.90;;;;;;5054249;28;19913;-72
2022/03/16 04:24:29;;;;;;;;;;;-1.90;99.90;;;;;;5054690;28;19913;-72
2022/03/16 04:26:55;;;;;;;;;;;-1.90;99.90;;;;;;5054303;28;19944;-74
2022/03/16 04:29:21;;;;;;;;;;;-1.90;99.90;;;;;;5054738;28;19917;-72
2022/03/16 04:31:46;;;;;;;;;;;-1.90;99.90;;;;;;5054453;28;19919;-73
2022/03/16 04:34:11;;;;;;;;;;;-1.90;99.90;;;;;;5054410;28;20352;-73
2022/03/16 04:36:37;;;;;;;;;;;-1.90;99.90;;;;;;5053929;28;19924;-72
2022/03/16 04:39:03;;;;;;;;;;;-1.90;99.90;;;;;;5052580;28;19964;-72
2022/03/16 04:41:28;;;;;;;;;;;-2.00;99.90;;;;;;5053863;28;19956;-73
2022/03/16 04:43:54;;;;;;;;;;;-2.00;99.90;;;;;;5053912;28;20011;-72
2022/03/16 04:46:20;;;;;;;;;;;-2.00;99.90;;;;;;5051964;28;19963;-73
2022/03/16 04:48:45;;;;;;;;;;;-1.80;99.90;;;;;;5053592;28;19913;-73
2022/03/16 04:51:11;;;;;;;;;;;-1.10;99.90;;;;;;5053800;28;19917;-73
2022/03/16 04:53:36;;;;;;;;;;;-2.00;99.90;;;;;;5053673;28;19917;-71
2022/03/16 04:56:02;;;;;;;;;;;-2.10;99.90;;;;;;5053798;28;20406;-73
2022/03/16 04:58:28;;;;;;;;;;;-2.10;99.90;;;;;;5052267;28;20198;-73
2022/03/16 05:00:53;;;;;;;;;;;-2.00;99.90;;;;;;5052089;28;20002;-72
2022/03/16 05:03:19;;;;;;;;;;;-1.90;99.90;;;;;;5053404;28;19920;-71
2022/03/16 05:05:44;;;;;;;;;;;-2.00;99.90;;;;;;5053368;28;19913;-72
2022/03/16 05:08:10;;;;;;;;;;;-1.90;99.90;;;;;;5052079;28;19925;-73
2022/03/16 05:10:35;;;;;;;;;;;-1.90;99.90;;;;;;5052276;28;20357;-72
2022/03/16 05:13:01;;;;;;;;;;;-2.00;99.90;;;;;;5053430;28;19925;-73
2022/03/16 05:15:26;;;;;;;;;;;-2.00;99.90;;;;;;5052013;28;19909;-73
2022/03/16 05:17:52;;;;;;;;;;;-2.00;99.90;;;;;;5051544;28;19987;-73
2022/03/16 05:20:18;;;;;;;;;;;-2.00;99.90;;;;;;5053265;28;19909;-72
2022/03/16 05:22:45;;;;;;;;;;;-1.90;99.90;;;;;;5052027;28;19923;-72
2022/03/16 05:25:11;;;;;;;;;;;-1.80;99.90;;;;;;5053225;28;19951;-72
2022/03/16 05:27:37;;;;;;;;;;;-1.70;99.90;;;;;;5053044;28;20300;-73
2022/03/16 05:30:03;;;;;;;;;;;-1.60;99.90;;;;;;5052813;28;19909;-72
2022/03/16 05:32:30;;;;;;;;;;;-1.70;99.90;;;;;;5051402;28;19972;-72
2022/03/16 05:34:56;;;;;;;;;;;-1.80;99.90;;;;;;5053008;28;20280;-72
2022/03/16 05:37:21;;;;;;;;;;;-1.70;99.90;;;;;;5052634;28;19916;-72
2022/03/16 05:39:47;;;;;;;;;;;-1.50;99.90;;;;;;5052890;28;19908;-73
2022/03/16 05:42:12;;;;;;;;;;;-1.10;99.90;;;;;;5052857;28;19909;-73
2022/03/16 05:44:38;;;;;;;;;;;-1.00;99.90;;;;;;5052585;28;20288;-73
2022/03/16 05:47:04;;;;;;;;;;;-0.90;99.90;;;;;;5051614;28;19915;-72
2022/03/16 05:49:29;;;;;;;;;;;-0.80;99.90;;;;;;5051891;28;19956;-73
2022/03/16 05:51:55;;;;;;;;;;;-0.60;99.90;;;;;;5051633;28;19909;-73
2022/03/16 05:54:20;;;;;;;;;;;1.00;99.90;;;;;;5053208;28;19967;-72
2022/03/16 05:56:46;;;;;;;;;;;-0.20;99.90;;;;;;5052567;28;19913;-72
2022/03/16 05:59:11;;;;;;;;;;;-0.10;99.90;;;;;;5050491;28;20019;-72
2022/03/16 06:01:37;;;;;;;;;;;-0.10;99.90;;;;;;5050869;28;20012;-72
2022/03/16 06:04:03;;;;;;;;;;;-0.10;99.90;;;;;;5052342;28;19921;-74
2022/03/16 06:06:30;;;;;;;;;;;0.10;99.90;;;;;;5052242;28;19916;-73
2022/03/16 06:08:56;;;;;;;;;;;0.10;99.90;;;;;;5052416;28;19970;-73
2022/03/16 06:11:23;;;;;;;;;;;0.10;99.90;;;;;;5052266;28;19909;-73
2022/03/16 06:13:49;;;;;;;;;;;0.20;99.90;;;;;;5052148;28;19942;-73
2022/03/16 06:16:14;;;;;;;;;;;0.20;99.90;;;;;;5050882;28;19995;-74
2022/03/16 06:18:40;;;;;;;;;;;0.10;99.90;;;;;;5052561;28;19995;-74
2022/03/16 06:21:05;;;;;;;;;;;0.60;99.90;;;;;;5052596;28;20021;-73
2022/03/16 06:23:32;;;;;;;;;;;0.40;99.90;;;;;;5051125;28;19921;-72
2022/03/16 06:25:57;;;;;;;;;;;0.50;99.90;;;;;;5052038;28;19915;-70
2022/03/16 06:28:23;;;;;;;;;;;0.70;99.90;;;;;;5050689;28;20402;-72
2022/03/16 06:30:48;;;;;;;;;;;0.90;99.90;;;;;;5051710;28;20436;-72
2022/03/16 06:33:14;;;;;;;;;;;1.00;99.90;;;;;;5052123;28;19948;-75
2022/03/16 06:35:39;;;;;;;;;;;1.20;99.90;;;;;;5050300;28;19913;-73
2022/03/16 06:38:08;;;;;;;;;;;1.10;99.90;;;;;;5051675;28;19921;-73
2022/03/16 06:40:33;;;;;;;;;;;1.00;99.90;;;;;;5051604;28;20332;-72
2022/03/16 06:42:59;;;;;;;;;;;1.10;99.90;;;;;;5051507;28;19917;-73
2022/03/16 06:45:25;;;;;;;;;;;1.10;99.90;;;;;;5050267;28;19920;-73
2022/03/16 06:47:53;;;;;;;;;;;1.10;99.90;;;;;;5051820;28;19948;-73
2022/03/16 06:50:20;;;;;;;;;;;1.20;99.90;;;;;;5051776;28;19913;-74
2022/03/16 06:52:46;;;;;;;;;;;1.20;99.90;;;;;;5051551;28;20198;-74
2022/03/16 06:55:12;;;;;;;;;;;1.30;99.90;;;;;;5050191;28;19909;-74
2022/03/16 06:57:38;;;;;;;;;;;1.40;99.90;;;;;;5049906;28;19962;-73
2022/03/16 07:00:04;;;;;;;;;;;1.40;99.90;;;;;;5050187;28;19909;-72
2022/03/16 07:02:30;;;;;;;;;;;1.40;99.90;;;;;;5049962;28;19925;-73
2022/03/16 07:04:55;;;;;;;;;;;1.50;99.90;;;;;;5050114;28;19920;-74
2022/03/16 07:07:25;;;;;;;;;;;1.70;99.90;;;;;;5051313;28;19913;-73
2022/03/16 07:09:50;;;;;;;;;;;1.80;99.90;;;;;;5054383;28;20387;-73
2022/03/16 07:12:16;;;;;;;;;;;1.80;99.90;;;;;;5056715;28;19913;-75
2022/03/16 07:14:41;;;;;;;;;;;2.00;99.90;;;;;;5058300;28;19909;-73
2022/03/16 07:17:07;;;;;;;;;;;2.40;99.90;;;;;;5057752;28;19927;-72
2022/03/16 07:19:32;;;;;;;;;;;2.70;99.90;;;;;;5058263;28;19909;-74
2022/03/16 07:21:59;;;;;;;;;;;2.70;99.90;;;;;;5058054;28;19917;-74
2022/03/16 07:24:25;;;;;;;;;;;2.60;99.90;;;;;;5058496;28;20355;-73
2022/03/16 07:26:55;;;;;;;;;;;2.70;99.90;;;;;;5058232;28;19970;-74
2022/03/16 07:29:20;;;;;;;;;;;2.80;99.90;;;;;;5058763;28;20253;-74
2022/03/16 07:31:46;;;;;;;;;;;2.80;99.90;;;;;;5058212;28;19936;-73
2022/03/16 07:34:12;;;;;;;;;;;2.80;99.90;;;;;;5058377;28;19960;-73
2022/03/16 07:36:37;;;;;;;;;;;2.70;99.90;;;;;;5057920;28;19925;-73
2022/03/16 07:39:03;;;;;;;;;;;2.80;99.90;;;;;;5056525;28;19931;-72
2022/03/16 07:41:28;;;;;;;;;;;2.90;99.90;;;;;;5057439;28;20292;-73
2022/03/16 07:43:54;;;;;;;;;;;3.10;99.90;;;;;;5057714;28;19909;-73
2022/03/16 07:46:19;;;;;;;;;;;3.10;99.90;;;;;;5057691;28;20422;-73
2022/03/16 07:48:45;;;;;;;;;;;3.10;99.90;;;;;;5056241;28;20087;-72
2022/03/16 07:51:11;;;;;;;;;;;2.90;99.90;;;;;;5057612;28;19924;-72
2022/03/16 07:53:37;;;;;;;;;;;2.70;99.90;;;;;;5057715;28;20324;-73
2022/03/16 07:56:03;;;;;;;;;;;2.90;99.90;;;;;;5056138;28;19916;-73
2022/03/16 07:58:29;;;;;;;;;;;3.20;99.90;;;;;;5056247;28;19917;-75
2022/03/16 08:00:54;;;;;;;;;;;3.40;99.90;;;;;;5057456;28;20550;-73
2022/03/16 08:03:20;;;;;;;;;;;4.10;99.90;;;;;;5056323;28;19925;-73
2022/03/16 08:05:47;;;;;;;;;;;3.60;99.90;;;;;;5057300;28;19912;-72
2022/03/16 08:08:13;;;;;;;;;;;3.80;99.90;;;;;;5056132;28;19913;-73
2022/03/16 08:10:39;;;;;;;;;;;4.10;99.90;;;;;;5056519;28;19921;-73
2022/03/16 08:13:04;;;;;;;;;;;4.20;99.90;;;;;;5056101;28;19913;-73
2022/03/16 08:15:30;;;;;;;;;;;4.40;99.90;;;;;;5057429;28;19912;-73
2022/03/16 08:17:55;;;;;;;;;;;4.60;99.20;;;;;;5056417;28;20352;-73
2022/03/16 08:20:21;;;;;;;;;;;4.80;98.90;;;;;;5056040;28;20373;-73
2022/03/16 08:22:47;;;;;;;;;;;4.90;97.90;;;;;;5052973;28;20368;-75
2022/03/16 08:25:13;;;;;;;;;;;4.60;98.20;;;;;;5054378;28;19913;-73
2022/03/16 08:27:42;;;;;;;;;;;4.50;98.50;;;;;;5054199;28;20000;-74
2022/03/16 08:30:08;;;;;;;;;;;4.40;98.70;;;;;;5054266;28;20336;-73
2022/03/16 08:32:34;;;;;;;;;;;4.40;98.80;;;;;;5052487;28;20323;-73
2022/03/16 08:34:59;;;;;;;;;;;4.60;97.90;;;;;;5054154;28;20019;-77
2022/03/16 08:37:25;;;;;;;;;;;4.90;98.00;;;;;;5052743;28;19913;-76
2022/03/16 08:39:51;;;;;;;;;;;5.30;97.10;;;;;;5052908;28;19921;-73
2022/03/16 08:42:17;;;;;;;;;;;5.70;96.20;;;;;;5053784;28;19909;-73
2022/03/16 08:44:43;;;;;;;;;;;5.30;94.80;;;;;;5054317;28;19917;-73
2022/03/16 08:47:11;;;;;;;;;;;4.90;94.50;;;;;;5053933;28;19913;-74
2022/03/16 08:49:37;;;;;;;;;;;4.90;95.30;;;;;;5052723;28;19913;-73
2022/03/16 08:52:04;;;;;;;;;;;5.20;93.70;;;;;;5052150;28;19921;-74
2022/03/16 08:54:29;;;;;;;;;;;5.40;93.10;;;;;;5053461;28;19917;-74
2022/03/16 08:56:55;;;;;;;;;;;6.00;93.10;;;;;;5051865;28;20407;-73
2022/03/16 08:59:20;;;;;;;;;;;6.60;90.40;;;;;;5052325;28;20492;-74
2022/03/16 09:01:46;;;;;;;;;;;6.90;89.90;;;;;;5053441;28;20272;-73
2022/03/16 09:04:12;;;;;;;;;;;7.10;88.30;;;;;;5051807;28;19920;-73
2022/03/16 09:06:37;;;;;;;;;;;7.20;84.10;;;;;;5053256;28;19931;-74
2022/03/16 09:09:03;;;;;;;;;;;7.10;82.70;;;;;;5051905;28;20308;-74
2022/03/16 09:11:29;;;;;;;;;;;7.00;82.30;;;;;;5053223;28;19929;-73
2022/03/16 09:13:55;;;;;;;;;;;6.90;82.40;;;;;;5053368;28;20325;-73
2022/03/16 09:16:20;;;;;;;;;;;6.80;79.30;;;;;;5052981;28;19952;-72
2022/03/16 09:18:47;;;;;;;;;;;6.60;77.70;;;;;;5053291;28;19917;-73
2022/03/16 09:21:12;;;;;;;;;;;6.80;78.60;;;;;;5053141;28;19913;-73
2022/03/16 09:23:38;;;;;;;;;;;7.10;77.90;;;;;;5053099;28;19920;-74
2022/03/16 09:26:05;;;;;;;;;;;7.40;77.60;;;;;;5051743;28;20277;-76
2022/03/16 09:28:30;;;;;;;;;;;7.60;77.50;;;;;;5051433;28;19913;-74
2022/03/16 09:30:56;;;;;;;;;;;7.90;77.00;;;;;;5052880;28;19920;-73
2022/03/16 09:33:24;;;;;;;;;;;8.00;75.10;;;;;;5051482;28;20015;-73
2022/03/16 09:35:51;;;;;;;;;;;7.80;75.90;;;;;;5052910;28;19927;-74
2022/03/16 09:38:20;;;;;;;;;;;7.50;76.00;;;;;;5051413;28;20181;-73
2022/03/16 09:40:49;;;;;;;;;;;7.20;75.80;;;;;;5051361;28;19921;-73
2022/03/16 09:43:18;;;;;;;;;;;6.80;76.20;;;;;;5052809;28;19959;-75
2022/03/16 09:45:57;;;;;;;;;;;6.20;77.70;;;;;;5052810;28;20022;-73
2022/03/16 09:48:26;;;;;;;;;;;6.60;77.90;;;;;;5053189;28;19963;-74
2022/03/16 09:50:52;;;;;;;;;;;7.00;75.60;;;;;;5053200;28;20016;-73
2022/03/16 09:53:19;;;;;;;;;;;7.10;75.80;;;;;;5053018;28;19913;-73
2022/03/16 09:55:45;;;;;;;;;;;7.00;76.10;;;;;;5051804;28;19920;-74
2022/03/16 09:58:11;;;;;;;;;;;6.90;76.20;;;;;;5052554;28;19917;-74
2022/03/16 10:00:39;;;;;;;;;;;7.00;76.40;;;;;;5052177;28;19917;-75
2022/03/16 10:03:05;;;;;;;;;;;7.20;77.60;;;;;;5052369;28;19924;-74
2022/03/16 10:05:31;;;;;;;;;;;7.10;77.00;;;;;;5052551;28;20289;-74
2022/03/16 10:08:02;;;;;;;;;;;7.20;78.10;;;;;;5050717;28;19917;-74
2022/03/16 10:13:19;;;;;;;;;;;7.60;78.40;;;;;;5052989;28;19923;-74
2022/03/16 10:15:45;;;;;;;;;;;8.00;78.00;;;;;;5050915;28;19935;-74
2022/03/16 10:18:14;;;;;;;;;;;7.90;77.30;;;;;;5052246;28;19917;-74
2022/03/16 10:20:40;;;;;;;;;;;7.80;76.10;;;;;;5051017;28;19978;-74
2022/03/16 10:23:12;;;;;;;;;;;7.90;75.30;;;;;;5050685;28;19916;-75
2022/03/16 10:25:45;;;;;;;;;;;7.90;73.50;;;;;;5050865;28;20380;-74
2022/03/16 10:28:16;;;;;;;;;;;7.80;73.50;;;;;;5050376;28;19913;-74
2022/03/16 10:30:49;;;;;;;;;;;8.00;73.20;;;;;;5050896;28;19917;-75
2022/03/16 10:33:16;;;;;;;;;;;8.20;73.70;;;;;;5050683;28;19944;-74
2022/03/16 10:36:00;;;;;;;;;;;8.60;72.60;;;;;;5051745;28;19967;-74
2022/03/16 10:38:26;;;;;;;;;;;8.80;70.40;;;;;;5050633;28;19916;-74
2022/03/16 10:41:08;;;;;;;;;;;8.40;70.80;;;;;;5050667;28;19921;-75
2022/03/16 10:46:38;;;;;;;;;;;8.00;70.70;;;;;;5051969;28;20435;-74
2022/03/16 10:49:03;;;;;;;;;;;7.50;71.70;;;;;;5050597;28;19913;-74
2022/03/16 10:51:29;;;;;;;;;;;8.10;72.90;;;;;;5051703;28;20323;-74
2022/03/16 10:53:56;;;;;;;;;;;8.50;70.60;;;;;;5052031;28;19951;-74
2022/03/16 10:56:23;;;;;;;;;;;8.60;71.10;;;;;;5051745;28;20273;-74
2022/03/16 10:58:49;;;;;;;;;;;8.40;71.30;;;;;;5051357;28;20015;-73
2022/03/16 11:01:15;;;;;;;;;;;8.20;73.10;;;;;;5051555;28;20347;-74
2022/03/16 11:03:43;;;;;;;;;;;8.40;73.40;;;;;;5050355;28;19924;-74
2022/03/16 11:06:09;;;;;;;;;;;8.80;72.80;;;;;;5051783;28;19917;-74
2022/03/16 11:08:37;;;;;;;;;;;8.80;72.20;;;;;;5050117;28;19919;-73
2022/03/16 11:13:48;;;;;;;;;;;8.60;72.00;;;;;;5051754;28;20024;-72
2022/03/16 11:16:20;;;;;;;;;;;8.70;71.40;;;;;;5051522;28;20379;-73
2022/03/16 11:18:50;;;;;;;;;;;8.80;70.60;;;;;;5050217;28;19921;-73
2022/03/16 11:21:27;;;;;;;;;;;8.90;70.30;;;;;;5051377;28;19920;-74
2022/03/16 11:26:43;;;;;;;;;;;9.60;67.90;;;;;;5051764;28;20020;-74
2022/03/16 11:29:12;;;;;;;;;;;9.60;67.90;;;;;;5050113;28;19991;-74
2022/03/16 11:31:42;;;;;;;;;;;10.90;67.40;;;;;;5049983;28;20003;-74
2022/03/16 11:34:10;;;;;;;;;;;9.50;66.10;;;;;;5051623;28;19913;-75
2022/03/16 11:36:40;;;;;;;;;;;9.20;67.10;;;;;;5051536;28;19920;-73
2022/03/16 11:39:20;;;;;;;;;;;9.20;65.90;;;;;;5051832;28;20345;-72
2022/03/16 11:41:48;;;;;;;;;;;9.00;65.70;;;;;;5050332;28;19916;-73
2022/03/16 11:44:26;;;;;;;;;;;9.40;65.20;;;;;;5050157;28;19917;-73
2022/03/16 11:46:53;;;;;;;;;;;8.90;64.40;;;;;;5051346;28;20007;-74
2022/03/16 11:49:28;;;;;;;;;;;8.10;66.00;;;;;;5051499;28;19920;-75
2022/03/16 11:51:59;;;;;;;;;;;7.90;65.80;;;;;;5051134;28;19913;-74
2022/03/16 11:54:47;;;;;;;;;;;7.80;65.50;;;;;;5050713;28;19932;-73
2022/03/16 11:57:13;;;;;;;;;;;7.10;67.30;;;;;;5053917;28;20365;-73
2022/03/16 11:59:46;;;;;;;;;;;6.60;68.70;;;;;;5053644;28;20349;-73
2022/03/16 12:02:16;;;;;;;;;;;6.50;68.80;;;;;;5053342;28;19929;-73
2022/03/16 12:04:44;;;;;;;;;;;6.60;70.50;;;;;;5054920;28;20019;-73
2022/03/16 12:07:12;;;;;;;;;;;6.70;71.20;;;;;;5053427;28;19913;-73
2022/03/16 12:09:55;;;;;;;;;;;6.50;71.20;;;;;;5054928;28;19976;-73
2022/03/16 12:15:11;;;;;;;;;;;6.10;70.90;;;;;;5054450;28;20426;-74
2022/03/16 12:17:41;;;;;;;;;;;5.80;71.10;;;;;;5054509;28;19913;-74
2022/03/16 12:20:17;;;;;;;;;;;5.50;70.60;;;;;;5054495;28;19913;-74
2022/03/16 12:22:45;;;;;;;;;;;5.30;71.30;;;;;;5054426;28;20352;-74
2022/03/16 12:25:25;;;;;;;;;;;5.30;71.80;;;;;;5053171;28;19913;-74
2022/03/16 12:30:49;;;;;;;;;;;5.10;72.70;;;;;;5054244;28;20044;-73
2022/03/16 12:33:25;;;;;;;;;;;5.00;71.80;;;;;;5054311;28;19944;-74
2022/03/16 12:35:52;;;;;;;;;;;4.90;72.30;;;;;;5052751;28;19962;-73
2022/03/16 12:38:18;;;;;;;;;;;4.80;72.90;;;;;;5054136;28;19917;-73
2022/03/16 12:43:30;;;;;;;;;;;4.60;71.80;;;;;;5054585;28;20314;-73
2022/03/16 12:46:12;;;;;;;;;;;4.50;72.70;;;;;;5053927;28;19913;-73
2022/03/16 12:48:38;;;;;;;;;;;4.40;72.60;;;;;;5054263;28;19913;-73
2022/03/16 12:51:04;;;;;;;;;;;4.40;74.00;;;;;;5053967;28;19967;-73
2022/03/16 12:53:44;;;;;;;;;;;4.40;73.60;;;;;;5053769;28;19912;-72
2022/03/16 12:56:18;;;;;;;;;;;4.40;72.30;;;;;;5053914;28;19966;-72
2022/03/16 12:58:51;;;;;;;;;;;4.50;71.30;;;;;;5053982;28;20007;-73
2022/03/16 13:01:17;;;;;;;;;;;4.40;69.50;;;;;;5053667;28;20341;-74
2022/03/16 13:03:43;;;;;;;;;;;4.40;70.20;;;;;;5054036;28;19913;-73
2022/03/16 13:06:20;;;;;;;;;;;4.60;71.20;;;;;;5053572;28;19927;-72
2022/03/16 13:08:50;;;;;;;;;;;4.70;71.50;;;;;;5053793;28;19920;-73
2022/03/16 13:11:26;;;;;;;;;;;4.90;71.40;;;;;;5053621;28;19952;-72
2022/03/16 13:14:19;;;;;;;;;;;5.00;70.50;;;;;;5053667;28;19917;-72
2022/03/16 13:16:46;;;;;;;;;;;5.20;68.60;;;;;;5051473;28;19954;-72
2022/03/16 13:19:32;;;;;;;;;;;5.20;68.00;;;;;;5051836;28;19913;-72
2022/03/16 13:22:04;;;;;;;;;;;5.00;68.70;;;;;;5051914;28;19935;-72
2022/03/16 13:24:31;;;;;;;;;;;5.00;69.50;;;;;;5053833;28;20164;-73
2022/03/16 13:26:57;;;;;;;;;;;5.10;70.20;;;;;;5053105;28;19984;-73
2022/03/16 13:29:23;;;;;;;;;;;5.10;71.40;;;;;;5052048;28;20051;-71
2022/03/16 13:31:53;;;;;;;;;;;5.00;72.40;;;;;;5052990;28;20387;-71
2022/03/16 13:34:19;;;;;;;;;;;5.00;73.10;;;;;;5051805;28;19987;-72
2022/03/16 13:36:44;;;;;;;;;;;4.70;72.60;;;;;;5053030;28;20396;-72
2022/03/16 13:39:19;;;;;;;;;;;4.80;73.40;;;;;;5053499;28;19913;-72
2022/03/16 13:42:13;;;;;;;;;;;4.80;73.40;;;;;;5051616;28;20373;-73
2022/03/16 13:44:40;;;;;;;;;;;4.50;74.90;;;;;;5053401;28;19920;-73
2022/03/16 13:47:12;;;;;;;;;;;4.40;75.60;;;;;;5052767;28;19912;-72
2022/03/16 13:49:38;;;;;;;;;;;4.50;75.50;;;;;;5052629;28;19917;-72
2022/03/16 13:52:08;;;;;;;;;;;4.40;75.00;;;;;;5052444;28;19952;-73
2022/03/16 13:54:34;;;;;;;;;;;4.50;74.90;;;;;;5053088;28;19912;-73
2022/03/16 13:57:17;;;;;;;;;;;4.40;75.10;;;;;;5052386;28;19916;-73
2022/03/16 13:59:51;;;;;;;;;;;4.30;74.80;;;;;;5053049;28;19924;-73
2022/03/16 14:02:20;;;;;;;;;;;4.20;75.40;;;;;;5052400;28;19924;-73
2022/03/16 14:04:46;;;;;;;;;;;4.10;75.50;;;;;;5052481;28;20269;-72
2022/03/16 14:07:29;;;;;;;;;;;4.00;76.50;;;;;;5052295;28;20646;-71
2022/03/16 14:09:58;;;;;;;;;;;4.00;77.20;;;;;;5052374;28;19923;-72
2022/03/16 14:12:24;;;;;;;;;;;3.90;77.60;;;;;;5052306;28;20253;-74
2022/03/16 14:14:59;;;;;;;;;;;3.70;76.20;;;;;;5050863;28;19912;-72
2022/03/16 14:17:40;;;;;;;;;;;3.80;76.50;;;;;;5050790;28;20372;-71
2022/03/16 14:20:10;;;;;;;;;;;3.80;76.50;;;;;;5050210;28;20000;-72
2022/03/16 14:22:36;;;;;;;;;;;3.70;76.70;;;;;;5052100;28;19909;-72
2022/03/16 14:25:22;;;;;;;;;;;3.80;77.00;;;;;;5050707;28;19955;-72
2022/03/16 14:27:48;;;;;;;;;;;3.80;76.30;;;;;;5051534;28;19912;-74
2022/03/16 14:30:14;;;;;;;;;;;3.70;77.60;;;;;;5050672;28;20395;-72
2022/03/16 14:32:40;;;;;;;;;;;3.70;77.50;;;;;;5050674;28;19970;-74
2022/03/16 14:35:06;;;;;;;;;;;3.60;77.80;;;;;;5050730;28;20325;-71
2022/03/16 14:37:31;;;;;;;;;;;3.60;78.10;;;;;;5050238;28;19913;-73
2022/03/16 14:39:57;;;;;;;;;;;3.50;77.50;;;;;;5050537;28;19920;-73
2022/03/16 14:42:24;;;;;;;;;;;3.60;76.70;;;;;;5052107;28;19913;-72
2022/03/16 14:44:50;;;;;;;;;;;3.50;76.20;;;;;;5050480;28;20430;-72